Time;durP1;ratioP1;P1;durP2;ratioP2;P2;SDS_P1;SDS_P2;PMS_P1;PMS_P2;Temp;Humidity;BMP_temperature;BMP_pressure;BME280_temperature;BME280_humidity;BME280_pressure;Samples;Min_cycle;Max_cycle;Signal;HPM_P1;HPM_P2
2021/06/26 00:02:07;;;;;;;25.80;21.85;;;17.50;99.90;;;;;;5009569;28;20059;-82
2021/06/26 00:04:38;;;;;;;26.42;21.38;;;17.50;99.90;;;;;;5008931;28;20081;-80
2021/06/26 00:07:05;;;;;;;26.85;22.85;;;17.50;99.90;;;;;;5009093;28;20059;-80
2021/06/26 00:09:46;;;;;;;25.10;21.35;;;17.50;99.90;;;;;;5001034;28;20181;-78
2021/06/26 00:12:13;;;;;;;26.40;21.95;;;17.50;99.90;;;;;;5007656;28;20077;-79
2021/06/26 00:14:41;;;;;;;27.63;22.85;;;17.50;99.90;;;;;;5008222;28;20046;-80
2021/06/26 00:17:08;;;;;;;26.30;23.42;;;17.30;99.90;;;;;;5008764;28;20050;-80
2021/06/26 00:19:35;;;;;;;28.95;23.98;;;17.30;99.90;;;;;;5011649;28;20097;-79
2021/06/26 00:22:02;;;;;;;31.38;23.23;;;17.30;99.90;;;;;;5009146;28;20105;-80
2021/06/26 00:24:29;;;;;;;31.90;25.33;;;17.30;99.90;;;;;;5009344;28;20086;-80
2021/06/26 00:26:57;;;;;;;29.77;23.92;;;17.30;99.90;;;;;;5010873;28;20080;-80
2021/06/26 00:29:24;;;;;;;32.28;25.27;;;17.30;99.90;;;;;;5013195;28;20050;-80
2021/06/26 00:31:51;;;;;;;29.25;24.40;;;17.30;99.90;;;;;;5011907;28;20061;-80
2021/06/26 00:34:18;;;;;;;29.00;24.30;;;17.30;99.90;;;;;;5009195;28;20448;-79
2021/06/26 00:36:45;;;;;;;29.85;24.20;;;17.30;99.90;;;;;;5004642;28;20054;-79
2021/06/26 00:39:12;;;;;;;31.92;23.95;;;17.30;99.90;;;;;;5007279;28;20078;-79
2021/06/26 00:41:39;;;;;;;26.90;22.95;;;17.30;99.90;;;;;;5008938;28;20050;-78
2021/06/26 00:44:09;;;;;;;28.55;24.33;;;17.30;99.90;;;;;;5005881;28;20074;-79
2021/06/26 00:46:37;;;;;;;29.67;23.35;;;17.30;99.90;;;;;;5006082;28;20077;-81
2021/06/26 00:49:05;;;;;;;27.45;23.23;;;17.40;99.90;;;;;;5004780;28;20082;-80
2021/06/26 00:51:32;;;;;;;31.17;24.10;;;17.40;99.90;;;;;;5004678;28;20088;-80
2021/06/26 00:53:59;;;;;;;28.33;23.13;;;17.40;99.90;;;;;;5006124;28;20046;-79
2021/06/26 00:56:27;;;;;;;33.22;24.05;;;17.40;99.90;;;;;;5006908;28;20050;-80
2021/06/26 00:58:55;;;;;;;34.22;24.45;;;17.40;99.90;;;;;;5008178;28;20133;-79
2021/06/26 01:01:23;;;;;;;32.05;25.27;;;17.40;99.90;;;;;;5006301;28;20074;-80
2021/06/26 01:03:50;;;;;;;30.90;24.75;;;17.40;99.90;;;;;;5006031;28;20084;-80
2021/06/26 01:06:17;;;;;;;29.48;24.63;;;17.40;99.90;;;;;;5005300;28;20081;-79
2021/06/26 01:08:44;;;;;;;34.35;26.42;;;17.30;99.90;;;;;;5005095;28;20078;-80
2021/06/26 01:11:11;;;;;;;29.48;25.05;;;17.30;99.90;;;;;;5003009;28;20089;-79
2021/06/26 01:13:38;;;;;;;32.03;25.58;;;17.30;99.90;;;;;;5003298;28;20043;-80
2021/06/26 01:16:06;;;;;;;30.17;25.58;;;17.30;99.90;;;;;;5004526;28;20491;-80
2021/06/26 01:18:38;;;;;;;32.08;25.55;;;17.30;99.90;;;;;;5002604;28;20054;-78
2021/06/26 01:21:05;;;;;;;;;;;17.30;99.90;;;;;;5002885;28;20051;-78
2021/06/26 01:23:35;;;;;;;31.67;26.60;;;17.20;99.90;;;;;;4997026;28;19937;-78
2021/06/26 01:26:01;;;;;;;32.47;27.15;;;17.10;99.90;;;;;;4999387;28;20086;-79
2021/06/26 01:28:28;;;;;;;34.13;27.98;;;17.10;99.90;;;;;;5002382;28;20074;-79
2021/06/26 01:30:55;;;;;;;32.40;26.52;;;17.20;99.90;;;;;;5000873;28;20054;-77
2021/06/26 01:33:22;;;;;;;34.05;27.90;;;17.20;99.90;;;;;;5000437;28;20043;-79
2021/06/26 01:35:49;;;;;;;32.88;27.95;;;17.20;99.90;;;;;;5001736;28;20054;-80
2021/06/26 01:38:16;;;;;;;37.65;28.08;;;17.20;99.90;;;;;;5007829;28;20125;-80
2021/06/26 01:40:44;;;;;;;35.78;28.60;;;17.10;99.90;;;;;;5011378;28;20058;-79
2021/06/26 01:43:13;;;;;;;36.53;27.05;;;17.00;99.90;;;;;;5010213;28;20093;-79
2021/06/26 01:45:41;;;;;;;33.42;28.58;;;17.00;99.90;;;;;;5009098;28;20053;-80
2021/06/26 01:48:08;;;;;;;37.20;29.23;;;17.00;99.90;;;;;;5008263;28;20080;-80
2021/06/26 01:50:36;;;;;;;37.70;28.85;;;17.00;99.90;;;;;;5000519;28;20576;-79
2021/06/26 01:53:03;;;;;;;34.30;28.42;;;16.90;99.90;;;;;;4997413;28;20088;-78
2021/06/26 01:55:31;;;;;;;37.38;27.52;;;16.90;99.90;;;;;;4998437;28;20535;-78
2021/06/26 01:57:59;;;;;;;38.00;29.27;;;17.00;99.90;;;;;;4998418;28;20081;-79
2021/06/26 02:00:26;;;;;;;32.45;27.67;;;17.00;99.90;;;;;;5004391;28;20086;-79
2021/06/26 02:02:53;;;;;;;39.70;29.85;;;17.00;99.90;;;;;;5009865;28;20046;-79
2021/06/26 02:05:23;;;;;;;36.22;28.52;;;17.00;99.90;;;;;;5015628;28;20042;-81
2021/06/26 02:07:53;;;;;;;40.03;28.17;;;17.00;99.90;;;;;;5012908;28;20077;-81
2021/06/26 02:10:42;;;;;;;33.17;26.52;;;17.00;99.90;;;;;;5013421;28;20082;-82
2021/06/26 02:13:17;;;;;;;32.50;28.02;;;17.00;99.90;;;;;;5010563;28;20047;-82
2021/06/26 02:15:59;;;;;;;33.97;26.83;;;17.00;99.90;;;;;;5011613;28;20068;-81
2021/06/26 02:18:27;;;;;;;40.73;27.33;;;16.90;99.90;;;;;;5002555;28;20088;-81
2021/06/26 02:20:56;;;;;;;34.53;26.77;;;16.90;99.90;;;;;;5001891;28;20669;-80
2021/06/26 02:23:27;;;;;;;41.03;28.08;;;16.90;99.90;;;;;;5001758;28;20047;-79
2021/06/26 02:25:56;;;;;;;31.80;26.02;;;16.80;99.90;;;;;;5005433;28;20070;-81
2021/06/26 02:28:32;;;;;;;34.45;27.55;;;16.80;99.90;;;;;;5012242;28;20105;-82
2021/06/26 02:33:24;;;;;;;35.15;27.50;;;16.80;99.90;;;;;;5082457;23;20120;-81
2021/06/26 02:35:51;;;;;;;36.08;28.88;;;16.70;99.90;;;;;;5077560;28;20123;-83
2021/06/26 02:38:18;;;;;;;35.70;28.02;;;16.70;99.90;;;;;;5077365;28;20074;-81
2021/06/26 02:40:45;;;;;;;37.20;28.02;;;16.70;99.90;;;;;;5077222;28;20048;-81
2021/06/26 02:43:12;;;;;;;39.78;30.65;;;16.70;99.90;;;;;;5082374;28;20397;-82
2021/06/26 02:45:40;;;;;;;35.58;28.77;;;16.60;99.90;;;;;;5078236;28;20114;-81
2021/06/26 02:48:07;;;;;;;37.10;29.90;;;16.50;99.90;;;;;;5079539;28;20447;-80
2021/06/26 02:50:34;;;;;;;36.80;29.45;;;16.50;99.90;;;;;;5075669;28;20084;-81
2021/06/26 02:53:01;;;;;;;39.25;29.38;;;16.60;99.90;;;;;;5077056;28;20048;-81
2021/06/26 02:55:28;;;;;;;37.70;29.15;;;16.60;99.90;;;;;;5077194;28;20131;-81
2021/06/26 02:57:57;;;;;;;39.95;29.08;;;16.60;99.90;;;;;;5078122;28;20131;-81
2021/06/26 03:00:25;;;;;;;38.83;29.40;;;16.60;99.90;;;;;;5077758;28;20392;-80
2021/06/26 03:02:53;;;;;;;32.42;27.90;;;16.60;99.90;;;;;;5080714;28;20053;-80
2021/06/26 03:05:20;;;;;;;35.83;28.17;;;16.60;99.90;;;;;;5074687;28;20048;-80
2021/06/26 03:07:50;;;;;;;32.03;26.80;;;16.60;99.90;;;;;;5075288;28;20226;-81
2021/06/26 03:10:17;;;;;;;33.97;26.80;;;16.60;99.90;;;;;;5077781;28;20202;-84
2021/06/26 03:12:44;;;;;;;32.65;26.38;;;16.60;99.90;;;;;;5077226;28;20087;-80
2021/06/26 03:15:12;;;;;;;33.17;26.42;;;16.50;99.90;;;;;;5073413;28;20476;-78
2021/06/26 03:17:39;;;;;;;34.35;27.15;;;16.40;99.90;;;;;;5074633;28;20109;-80
2021/06/26 03:20:11;;;;;;;35.42;27.48;;;16.40;99.90;;;;;;5075039;28;20135;-80
2021/06/26 03:22:38;;;;;;;33.25;27.42;;;16.30;99.90;;;;;;5076143;28;20056;-82
2021/06/26 03:25:06;;;;;;;37.30;26.77;;;16.20;99.90;;;;;;5075067;28;20233;-81
2021/06/26 03:27:33;;;;;;;34.22;26.60;;;16.10;99.90;;;;;;5075894;28;20449;-80
2021/06/26 03:29:59;;;;;;;33.97;26.90;;;16.10;99.90;;;;;;5074507;28;20105;-79
2021/06/26 03:32:26;;;;;;;35.88;26.67;;;16.10;99.90;;;;;;5073444;28;20516;-79
2021/06/26 03:34:53;;;;;;;36.35;27.52;;;16.10;99.90;;;;;;5073047;28;20455;-79
2021/06/26 03:37:21;;;;;;;39.97;27.35;;;16.10;99.90;;;;;;5072752;28;20131;-79
2021/06/26 03:39:48;;;;;;;38.58;27.77;;;16.20;99.90;;;;;;5072838;28;20098;-78
2021/06/26 03:42:15;;;;;;;39.75;28.98;;;16.10;99.90;;;;;;5072408;28;20083;-79
2021/06/26 03:44:42;;;;;;;35.42;28.75;;;16.10;99.90;;;;;;5072596;28;20120;-80
2021/06/26 03:47:09;;;;;;;40.95;29.73;;;16.10;99.90;;;;;;5073623;28;20124;-80
2021/06/26 03:49:37;;;;;;;39.13;28.77;;;16.10;99.90;;;;;;5074189;28;20045;-80
2021/06/26 03:52:06;;;;;;;37.58;27.38;;;16.00;99.90;;;;;;5073278;28;20052;-78
2021/06/26 03:54:34;;;;;;;39.42;28.00;;;16.00;99.90;;;;;;5072575;28;20196;-80
2021/06/26 03:57:01;;;;;;;35.90;27.27;;;16.00;99.90;;;;;;5074994;28;20464;-80
2021/06/26 03:59:28;;;;;;;34.33;26.63;;;16.10;99.90;;;;;;5074420;28;20076;-80
2021/06/26 04:01:55;;;;;;;37.67;27.67;;;16.10;99.90;;;;;;5075707;28;20467;-80
2021/06/26 04:04:22;;;;;;;33.28;25.90;;;16.20;99.90;;;;;;5079331;28;20114;-80
2021/06/26 04:06:49;;;;;;;36.60;26.75;;;16.30;99.90;;;;;;5078900;28;20044;-80
2021/06/26 04:09:16;;;;;;;34.13;26.38;;;16.40;99.90;;;;;;5079991;28;20104;-80
2021/06/26 04:11:44;;;;;;;33.53;26.88;;;16.50;99.90;;;;;;5079427;28;20052;-81
2021/06/26 04:14:11;;;;;;;33.70;26.92;;;16.60;99.90;;;;;;5077768;28;20064;-80
2021/06/26 04:16:38;;;;;;;33.88;27.42;;;16.80;99.90;;;;;;5076467;28;20131;-79
2021/06/26 04:19:05;;;;;;;33.22;28.92;;;16.90;99.90;;;;;;5079300;28;20057;-81
2021/06/26 04:21:31;;;;;;;37.58;27.65;;;17.00;99.90;;;;;;5079187;28;20080;-80
2021/06/26 04:23:58;;;;;;;38.28;28.20;;;17.10;99.90;;;;;;5079948;28;20049;-80
2021/06/26 04:26:25;;;;;;;38.30;26.83;;;17.10;99.90;;;;;;5079435;28;20112;-82
2021/06/26 04:28:53;;;;;;;34.65;26.42;;;17.20;99.90;;;;;;5077867;28;20048;-79
2021/06/26 04:31:20;;;;;;;36.42;25.65;;;17.40;99.90;;;;;;5079583;28;20112;-81
2021/06/26 04:33:47;;;;;;;33.88;26.40;;;17.60;99.90;;;;;;5079160;28;20095;-81
2021/06/26 04:36:14;;;;;;;31.70;25.85;;;17.80;99.90;;;;;;5079009;28;20211;-81
2021/06/26 04:38:42;;;;;;;31.55;25.13;;;18.00;99.90;;;;;;5088435;28;20053;-82
2021/06/26 04:41:10;;;;;;;31.45;24.48;;;18.40;99.90;;;;;;5088412;28;20523;-82
2021/06/26 04:43:37;;;;;;;28.75;22.83;;;18.80;99.90;;;;;;5089663;28;20048;-82
2021/06/26 04:46:08;;;;;;;31.00;24.80;;;19.20;99.90;;;;;;5085751;28;20552;-82
2021/06/26 04:48:36;;;;;;;28.83;22.33;;;19.50;99.90;;;;;;5080785;28;20056;-82
2021/06/26 04:51:03;;;;;;;30.08;24.48;;;19.60;99.90;;;;;;5080282;28;20389;-83
2021/06/26 04:53:30;;;;;;;28.38;23.73;;;19.60;99.90;;;;;;5080290;28;20494;-82
2021/06/26 04:55:56;;;;;;;27.60;24.17;;;19.50;99.90;;;;;;5079259;28;20460;-81
2021/06/26 04:58:24;;;;;;;29.38;23.25;;;19.50;99.90;;;;;;5079585;28;20103;-80
2021/06/26 05:00:53;;;;;;;29.00;25.35;;;19.50;99.90;;;;;;5077999;28;20053;-81
2021/06/26 05:03:22;;;;;;;27.25;23.65;;;19.30;99.90;;;;;;5077200;28;20501;-81
2021/06/26 05:05:50;;;;;;;27.58;23.58;;;19.00;99.90;;;;;;5077447;28;20492;-82
2021/06/26 05:08:17;;;;;;;27.90;24.90;;;18.70;99.90;;;;;;5076993;28;20048;-79
2021/06/26 05:10:44;;;;;;;26.92;24.02;;;18.40;99.90;;;;;;5079124;28;20098;-83
2021/06/26 05:13:12;;;;;;;27.52;24.38;;;18.10;99.90;;;;;;5083145;28;20072;-82
2021/06/26 05:15:41;;;;;;;30.25;25.15;;;18.00;99.90;;;;;;5084337;28;20041;-81
2021/06/26 05:18:09;;;;;;;27.08;24.17;;;17.80;99.90;;;;;;5086136;28;20044;-81
2021/06/26 05:20:37;;;;;;;26.50;23.35;;;17.70;99.90;;;;;;5083475;28;20048;-81
2021/06/26 05:23:14;;;;;;;33.45;25.08;;;17.50;99.90;;;;;;5077655;28;20478;-81
2021/06/26 05:25:42;;;;;;;28.52;24.25;;;17.50;99.90;;;;;;5084026;28;20091;-81
2021/06/26 05:28:09;;;;;;;29.83;24.08;;;17.50;99.90;;;;;;5077422;28;20132;-81
2021/06/26 05:30:36;;;;;;;30.40;25.33;;;17.60;99.90;;;;;;5079221;28;20456;-82
2021/06/26 05:33:03;;;;;;;30.27;24.95;;;17.70;99.90;;;;;;5077981;28;20110;-81
2021/06/26 05:35:29;;;;;;;31.63;23.83;;;17.90;99.90;;;;;;5078226;28;20055;-82
2021/06/26 05:37:58;;;;;;;25.83;23.10;;;18.40;99.90;;;;;;5078060;28;20056;-81
2021/06/26 05:40:25;;;;;;;26.25;21.52;;;18.80;99.90;;;;;;5078598;28;20108;-82
2021/06/26 05:42:52;;;;;;;24.50;21.60;;;19.40;99.90;;;;;;5078489;28;20079;-80
2021/06/26 05:45:19;;;;;;;24.17;20.58;;;20.10;99.90;;;;;;5079558;28;20454;-80
2021/06/26 05:47:45;;;;;;;29.45;21.10;;;20.50;99.90;;;;;;5075577;28;20479;-79
2021/06/26 05:50:12;;;;;;;23.05;20.55;;;21.20;99.90;;;;;;5079534;28;20105;-80
2021/06/26 05:52:50;;;;;;;25.33;19.90;;;21.80;99.90;;;;;;5081656;28;20052;-80
2021/06/26 05:55:19;;;;;;;19.88;17.77;;;22.60;99.90;;;;;;5086077;28;20044;-81
2021/06/26 05:57:46;;;;;;;24.05;19.38;;;23.10;99.90;;;;;;5081731;28;20190;-80
2021/06/26 06:00:15;;;;;;;21.33;19.10;;;23.50;99.90;;;;;;5077884;28;20508;-81
2021/06/26 06:02:43;;;;;;;21.40;18.85;;;23.80;99.90;;;;;;5075467;28;20508;-79
2021/06/26 06:05:12;;;;;;;20.67;18.63;;;24.20;99.90;;;;;;5072939;28;20132;-78
2021/06/26 06:07:39;;;;;;;22.80;19.33;;;24.40;99.90;;;;;;5073352;28;20079;-81
2021/06/26 06:10:09;;;;;;;24.08;18.95;;;24.40;99.90;;;;;;5072706;28;20143;-78
2021/06/26 06:12:38;;;;;;;23.00;19.85;;;24.80;99.90;;;;;;5074417;28;20139;-80
2021/06/26 06:15:07;;;;;;;21.55;19.15;;;24.90;99.90;;;;;;5072785;28;20045;-79
2021/06/26 06:17:34;;;;;;;23.50;19.60;;;25.40;99.90;;;;;;5073973;28;20053;-80
2021/06/26 06:20:03;;;;;;;23.73;20.90;;;25.50;99.90;;;;;;5074604;28;20091;-80
2021/06/26 06:22:30;;;;;;;22.70;20.38;;;24.90;99.90;;;;;;5074443;28;20071;-80
2021/06/26 06:24:57;;;;;;;22.48;19.90;;;25.10;99.90;;;;;;5072922;28;20135;-80
2021/06/26 06:27:24;;;;;;;23.80;21.02;;;24.90;99.90;;;;;;5073463;28;20135;-82
2021/06/26 06:29:53;;;;;;;21.70;19.65;;;25.10;99.90;;;;;;5073128;28;20049;-78
2021/06/26 06:32:20;;;;;;;22.80;20.42;;;25.60;99.90;;;;;;5072014;28;20080;-78
2021/06/26 06:34:47;;;;;;;22.80;20.50;;;25.90;99.90;;;;;;5071723;28;20128;-80
2021/06/26 06:37:14;;;;;;;23.23;20.77;;;26.00;99.90;;;;;;5072596;28;20068;-78
2021/06/26 06:39:41;;;;;;;23.88;21.50;;;26.10;99.90;;;;;;5072829;28;20136;-79
2021/06/26 06:42:09;;;;;;;25.42;21.83;;;26.70;99.90;;;;;;5072903;28;20068;-78
2021/06/26 06:44:35;;;;;;;23.52;21.13;;;27.00;99.90;;;;;;5073418;28;20512;-80
2021/06/26 06:47:04;;;;;;;23.27;20.77;;;27.50;99.90;;;;;;5074237;28;20131;-83
2021/06/26 06:49:31;;;;;;;23.77;21.25;;;27.50;99.90;;;;;;5073410;28;20127;-79
2021/06/26 06:51:58;;;;;;;24.40;21.90;;;27.50;99.90;;;;;;5073447;28;20114;-79
2021/06/26 06:54:25;;;;;;;23.83;21.27;;;28.00;99.90;;;;;;5071456;28;20136;-77
2021/06/26 06:56:52;;;;;;;25.77;22.63;;;28.00;99.90;;;;;;5071410;28;20045;-77
2021/06/26 06:59:19;;;;;;;24.38;21.60;;;27.90;99.90;;;;;;5071374;28;20250;-78
2021/06/26 07:01:45;;;;;;;27.98;23.50;;;27.90;99.90;;;;;;5071701;28;20227;-78
2021/06/26 07:04:14;;;;;;;26.50;23.75;;;27.60;99.90;;;;;;5070934;28;20568;-78
2021/06/26 07:06:40;;;;;;;27.98;25.08;;;27.60;99.90;;;;;;5072319;28;20045;-76
2021/06/26 07:09:07;;;;;;;27.00;24.13;;;27.50;99.90;;;;;;5071029;28;20535;-78
2021/06/26 07:11:34;;;;;;;26.52;23.73;;;27.70;99.90;;;;;;5071588;28;20136;-77
2021/06/26 07:14:01;;;;;;;27.40;24.50;;;27.70;99.90;;;;;;5071264;28;20151;-80
2021/06/26 07:16:28;;;;;;;29.95;24.45;;;27.80;99.90;;;;;;5071302;28;20072;-78
2021/06/26 07:18:55;;;;;;;31.38;25.23;;;27.90;99.90;;;;;;5071302;28;20053;-79
2021/06/26 07:21:23;;;;;;;31.08;24.30;;;27.90;99.90;;;;;;5070999;28;20523;-78
2021/06/26 07:23:50;;;;;;;29.58;26.35;;;28.00;99.90;;;;;;5070856;28;20044;-78
2021/06/26 07:26:17;;;;;;;29.58;26.40;;;28.30;99.90;;;;;;5070899;28;20094;-78
2021/06/26 07:28:44;;;;;;;29.38;26.25;;;28.10;99.90;;;;;;5071584;28;20162;-77
2021/06/26 07:31:11;;;;;;;30.30;27.00;;;27.60;99.90;;;;;;5070922;28;20059;-78
2021/06/26 07:33:40;;;;;;;30.73;27.33;;;27.30;99.90;;;;;;5074311;28;20044;-77
2021/06/26 07:36:08;;;;;;;31.30;26.95;;;27.20;99.90;;;;;;5071006;28;20569;-79
2021/06/26 07:38:36;;;;;;;29.63;26.52;;;26.80;99.90;;;;;;5072029;28;20143;-78
2021/06/26 07:41:03;;;;;;;31.67;26.65;;;27.10;99.90;;;;;;5071690;28;20127;-79
2021/06/26 07:43:30;;;;;;;34.22;26.00;;;27.50;99.90;;;;;;5071008;28;20125;-78
2021/06/26 07:45:57;;;;;;;32.00;26.75;;;28.00;99.90;;;;;;5070962;28;20052;-77
2021/06/26 07:48:23;;;;;;;31.05;27.75;;;28.60;99.90;;;;;;5071020;28;20052;-78
2021/06/26 07:50:51;;;;;;;30.10;26.90;;;28.70;99.90;;;;;;5071204;28;20139;-78
2021/06/26 07:53:18;;;;;;;31.60;28.45;;;29.00;99.90;;;;;;5070577;28;20088;-78
2021/06/26 07:55:51;;;;;;;35.20;31.52;;;29.30;99.90;;;;;;5071482;28;20147;-78
2021/06/26 07:58:19;;;;;;;34.80;31.23;;;29.70;99.90;;;;;;5070861;28;20531;-79
2021/06/26 08:00:47;;;;;;;33.03;28.02;;;28.80;99.90;;;;;;5071998;28;20132;-80
2021/06/26 08:03:14;;;;;;;33.03;29.50;;;28.20;99.90;;;;;;5070455;28;20420;-78
2021/06/26 08:05:41;;;;;;;32.40;28.92;;;28.40;99.90;;;;;;5070919;28;20139;-79
2021/06/26 08:08:08;;;;;;;35.47;30.40;;;28.80;99.90;;;;;;5076431;28;20459;-78
2021/06/26 08:10:34;;;;;;;32.17;28.92;;;28.70;99.90;;;;;;5070706;28;20058;-80
2021/06/26 08:13:03;;;;;;;34.22;30.52;;;29.20;99.90;;;;;;5070481;28;20543;-79
2021/06/26 08:15:31;;;;;;;32.25;28.85;;;29.30;99.90;;;;;;5071163;28;20045;-78
2021/06/26 08:17:58;;;;;;;32.05;28.65;;;29.00;99.90;;;;;;5071402;28;20237;-78
2021/06/26 08:20:26;;;;;;;32.58;29.13;;;29.50;99.90;;;;;;5071309;28;20072;-78
2021/06/26 08:22:53;;;;;;;33.63;28.30;;;29.50;99.90;;;;;;5070552;28;20566;-78
2021/06/26 08:25:19;;;;;;;31.50;28.40;;;29.40;99.90;;;;;;5062085;28;20124;-76
2021/06/26 08:27:46;;;;;;;31.83;28.52;;;29.50;99.90;;;;;;5031071;28;20045;-76
2021/06/26 08:30:15;;;;;;;29.98;26.98;;;29.50;99.90;;;;;;5032057;28;20079;-78
2021/06/26 08:38:46;;;;;;;;;;;;;;;;;;;;;
2021/06/26 08:41:18;;;;;;;25.88;23.10;;;30.40;99.90;;;;;;5047096;28;20073;-80
2021/06/26 08:43:55;;;;;;;26.83;23.77;;;31.00;99.90;;;;;;5047863;28;20057;-80
2021/06/26 08:47:12;;;;;;;26.92;22.92;;;30.70;99.90;;;;;;5047474;28;20042;-79
2021/06/26 08:49:42;;;;;;;26.67;23.40;;;30.20;99.90;;;;;;5052426;28;20057;-80
2021/06/26 08:52:12;;;;;;;24.65;21.83;;;29.50;99.90;;;;;;5048818;28;20120;-83
2021/06/26 08:54:43;;;;;;;23.88;20.98;;;29.60;99.90;;;;;;5038603;28;20412;-83
2021/06/26 08:57:31;;;;;;;24.60;22.08;;;30.00;99.90;;;;;;5033952;28;20069;-83
2021/06/26 09:00:17;;;;;;;23.90;21.60;;;30.30;99.90;;;;;;5034744;28;20110;-84
2021/06/26 09:09:29;;;;;;;23.20;20.75;;;29.80;99.90;;;;;;4984026;28;20047;-83
2021/06/26 09:15:11;;;;;;;23.02;20.70;;;30.30;99.90;;;;;;5018436;28;20141;-82
2021/06/26 09:21:10;;;;;;;27.27;24.58;;;30.40;99.90;;;;;;5016451;28;20061;-81
2021/06/26 09:23:46;;;;;;;27.17;24.23;;;30.30;99.90;;;;;;5026560;28;20050;-81
2021/06/26 09:26:16;;;;;;;28.63;24.60;;;30.60;99.90;;;;;;5026281;28;20061;-83
2021/06/26 09:29:23;;;;;;;25.48;22.75;;;30.60;99.90;;;;;;5022710;28;20056;-82
2021/06/26 09:32:22;;;;;;;28.05;22.40;;;30.80;99.90;;;;;;5031686;28;20144;-82
2021/06/26 09:37:48;;;;;;;21.25;19.00;;;30.60;99.90;;;;;;5024286;28;20487;-84
2021/06/26 09:55:12;;;;;;;17.65;15.93;;;28.90;99.90;;;;;;5068669;23;20066;-83
2021/06/26 10:01:44;;;;;;;21.00;16.50;;;29.00;99.90;;;;;;5022411;28;20064;-81
2021/06/26 10:04:15;;;;;;;21.92;17.55;;;29.00;99.90;;;;;;5035408;28;20060;-80
2021/06/26 10:06:49;;;;;;;18.55;16.60;;;28.70;99.90;;;;;;5042820;28;20052;-80
2021/06/26 10:09:30;;;;;;;17.33;15.50;;;28.60;99.90;;;;;;5032344;28;20060;-81
2021/06/26 10:12:16;;;;;;;16.73;15.10;;;28.30;99.90;;;;;;5029311;28;20069;-81
2021/06/26 10:15:05;;;;;;;15.98;14.38;;;28.30;99.90;;;;;;5042440;28;20068;-82
2021/06/26 10:17:41;;;;;;;18.40;14.75;;;28.40;99.90;;;;;;5023565;28;20042;-81
2021/06/26 10:20:25;;;;;;;17.55;15.75;;;28.60;99.90;;;;;;5020885;28;20119;-82
2021/06/26 10:22:58;;;;;;;17.50;15.68;;;28.50;99.90;;;;;;5023065;28;20130;-83
2021/06/26 10:25:34;;;;;;;14.90;13.32;;;28.40;99.90;;;;;;5022943;28;20104;-82
2021/06/26 10:28:16;;;;;;;14.80;13.40;;;28.40;99.90;;;;;;5022159;28;20070;-80
2021/06/26 10:31:05;;;;;;;14.40;12.93;;;28.40;99.90;;;;;;5021997;28;20069;-82
2021/06/26 10:33:44;;;;;;;13.73;12.25;;;28.60;99.90;;;;;;5031546;28;20054;-82
2021/06/26 10:36:16;;;;;;;14.02;12.60;;;28.90;99.90;;;;;;5051440;28;20116;-80
2021/06/26 10:38:46;;;;;;;14.38;12.98;;;28.60;99.90;;;;;;5025117;28;20046;-79
2021/06/26 10:41:18;;;;;;;15.15;13.35;;;28.50;99.90;;;;;;5024275;28;20084;-79
2021/06/26 10:43:55;;;;;;;16.52;13.50;;;28.50;99.90;;;;;;5020979;28;20057;-80
2021/06/26 10:46:22;;;;;;;13.27;12.02;;;28.60;99.90;;;;;;5026944;28;20042;-80
2021/06/26 10:48:58;;;;;;;13.10;11.80;;;28.30;99.70;;;;;;5037772;28;20069;-81
2021/06/26 10:51:33;;;;;;;14.02;12.60;;;28.00;99.90;;;;;;5034878;28;20054;-80
2021/06/26 10:54:10;;;;;;;12.60;11.30;;;28.00;99.90;;;;;;5035609;28;20092;-81
2021/06/26 10:56:37;;;;;;;12.80;11.15;;;28.00;99.90;;;;;;5032993;28;20125;-82
2021/06/26 10:59:12;;;;;;;11.48;10.35;;;28.00;99.90;;;;;;5029359;28;20113;-80
2021/06/26 11:01:40;;;;;;;12.50;10.98;;;28.10;99.90;;;;;;5026959;28;20050;-79
2021/06/26 11:04:10;;;;;;;12.10;10.90;;;28.50;99.90;;;;;;5015829;28;20090;-78
2021/06/26 11:06:38;;;;;;;13.52;10.93;;;28.70;99.60;;;;;;5018124;28;20050;-79
2021/06/26 11:09:07;;;;;;;14.25;12.20;;;29.00;99.90;;;;;;5018660;28;20073;-80
2021/06/26 11:11:39;;;;;;;14.73;11.77;;;29.00;99.90;;;;;;5019374;28;20054;-80
2021/06/26 11:14:07;;;;;;;15.30;13.70;;;29.00;99.90;;;;;;5017841;28;20050;-79
2021/06/26 11:16:35;;;;;;;13.90;12.57;;;29.00;99.90;;;;;;5018008;28;20046;-79
2021/06/26 11:19:02;;;;;;;15.30;13.07;;;28.70;99.90;;;;;;5019182;28;20132;-78
2021/06/26 11:21:38;;;;;;;14.38;12.18;;;28.50;99.90;;;;;;5018787;28;20058;-80
2021/06/26 11:24:06;;;;;;;13.30;10.80;;;28.20;99.90;;;;;;5028957;28;20049;-79
2021/06/26 11:26:44;;;;;;;12.27;11.10;;;28.10;98.50;;;;;;5030259;28;20109;-80
2021/06/26 11:29:21;;;;;;;13.05;10.57;;;27.70;98.00;;;;;;5028924;28;20108;-79
2021/06/26 11:31:48;;;;;;;13.07;10.60;;;27.70;99.70;;;;;;5027898;28;20081;-79
2021/06/26 11:34:16;;;;;;;12.68;11.38;;;27.40;98.60;;;;;;5018883;28;20418;-79
2021/06/26 11:36:53;;;;;;;12.68;11.38;;;27.20;98.20;;;;;;5020162;28;20042;-81
2021/06/26 11:39:20;;;;;;;12.07;10.00;;;27.00;98.70;;;;;;5025218;28;20069;-80
2021/06/26 11:41:47;;;;;;;12.02;10.52;;;26.90;99.70;;;;;;5026583;28;20083;-81
2021/06/26 11:44:14;;;;;;;12.40;11.13;;;26.90;98.70;;;;;;5026174;28;20045;-82
2021/06/26 11:46:41;;;;;;;11.90;10.70;;;26.70;98.30;;;;;;5036840;28;20050;-82
2021/06/26 11:49:08;;;;;;;11.93;10.20;;;26.80;99.20;;;;;;5031893;28;20528;-82
2021/06/26 11:51:35;;;;;;;12.63;11.32;;;26.90;98.80;;;;;;5032636;28;20057;-80
2021/06/26 11:54:04;;;;;;;12.43;11.15;;;26.80;98.00;;;;;;5020692;28;20073;-81
2021/06/26 11:56:30;;;;;;;13.00;10.23;;;26.70;99.00;;;;;;5021800;28;20046;-80
2021/06/26 11:58:59;;;;;;;11.38;10.27;;;27.00;99.40;;;;;;5021192;28;20065;-81
2021/06/26 12:01:28;;;;;;;12.25;10.15;;;27.30;99.50;;;;;;5021996;28;20073;-81
2021/06/26 12:03:56;;;;;;;11.60;10.50;;;27.60;97.90;;;;;;5020299;28;20152;-80
2021/06/26 12:06:22;;;;;;;10.73;9.63;;;27.80;98.20;;;;;;5021083;28;20081;-80
2021/06/26 12:08:56;;;;;;;9.65;8.75;;;27.70;97.60;;;;;;5026019;28;20052;-79
2021/06/26 12:11:27;;;;;;;10.57;8.88;;;27.60;95.80;;;;;;5013158;28;20388;-76
2021/06/26 12:14:02;;;;;;;10.43;9.43;;;27.50;97.00;;;;;;4992057;28;20058;-78
2021/06/26 12:16:32;;;;;;;11.00;9.43;;;27.70;96.40;;;;;;5008871;28;20042;-76
2021/06/26 12:19:00;;;;;;;10.27;9.27;;;27.70;96.60;;;;;;5020540;28;20054;-78
2021/06/26 12:21:29;;;;;;;10.85;8.80;;;27.40;96.30;;;;;;5022299;28;20124;-77
2021/06/26 12:23:57;;;;;;;9.20;8.30;;;27.30;97.30;;;;;;5025403;28;20124;-79
2021/06/26 12:26:27;;;;;;;9.80;8.90;;;27.20;97.70;;;;;;5025198;28;20486;-79
2021/06/26 12:28:55;;;;;;;12.82;10.65;;;27.40;97.50;;;;;;5023510;28;20519;-79
2021/06/26 12:31:25;;;;;;;10.18;9.15;;;27.50;98.70;;;;;;5030024;28;20088;-81
2021/06/26 12:33:59;;;;;;;10.23;8.98;;;27.60;97.40;;;;;;5026928;28;20041;-79
2021/06/26 12:36:26;;;;;;;11.95;9.88;;;27.70;97.50;;;;;;5039955;28;20111;-80
2021/06/26 12:38:53;;;;;;;13.80;9.45;;;27.70;98.20;;;;;;5035750;28;20136;-78
2021/06/26 12:41:22;;;;;;;11.02;9.10;;;27.60;96.60;;;;;;5037164;28;20605;-79
2021/06/26 12:43:50;;;;;;;10.35;9.30;;;27.70;98.30;;;;;;5036329;28;20136;-79
2021/06/26 12:46:17;;;;;;;14.10;9.43;;;28.00;97.40;;;;;;5022903;28;20081;-78
2021/06/26 12:48:46;;;;;;;10.80;9.65;;;28.30;97.70;;;;;;5026767;28;20093;-80
2021/06/26 12:51:15;;;;;;;10.98;9.70;;;28.40;96.50;;;;;;5024383;28;20128;-78
2021/06/26 12:53:44;;;;;;;11.07;9.93;;;28.50;97.50;;;;;;5026866;28;20449;-78
2021/06/26 12:56:14;;;;;;;9.93;9.02;;;28.60;98.00;;;;;;5026512;28;20078;-78
2021/06/26 12:58:54;;;;;;;10.38;9.27;;;28.90;96.70;;;;;;5022662;28;20453;-78
2021/06/26 13:01:21;;;;;;;9.98;8.98;;;29.10;95.90;;;;;;5018204;28;20180;-77
2021/06/26 13:03:55;;;;;;;10.38;9.10;;;29.10;95.30;;;;;;5026316;28;20105;-79
2021/06/26 13:06:22;;;;;;;13.20;9.38;;;28.90;96.00;;;;;;5012953;28;20052;-78
2021/06/26 13:08:51;;;;;;;10.90;8.70;;;28.90;96.30;;;;;;5014395;28;20144;-79
2021/06/26 13:11:37;;;;;;;10.38;9.38;;;28.60;95.50;;;;;;5015950;28;20081;-76
2021/06/26 13:14:08;;;;;;;10.23;9.23;;;28.60;95.80;;;;;;5013810;28;20053;-79
2021/06/26 13:16:36;;;;;;;10.50;9.50;;;28.40;97.00;;;;;;5015563;28;20481;-77
2021/06/26 13:19:05;;;;;;;11.07;8.65;;;28.30;95.70;;;;;;5014773;28;20085;-79
2021/06/26 13:21:32;;;;;;;10.30;9.38;;;28.20;95.70;;;;;;5014767;28;20119;-78
2021/06/26 13:23:59;;;;;;;11.68;9.45;;;28.00;96.10;;;;;;5014151;28;20557;-79
2021/06/26 13:26:26;;;;;;;9.73;8.77;;;27.90;97.10;;;;;;5016363;28;20108;-79